createdAt,value
2023-02-02T03:20:08.870Z,21.89
2023-02-02T03:21:08.843Z,21.90
2023-02-02T03:22:08.831Z,21.90
2023-02-02T03:23:08.830Z,21.91
2023-02-02T03:24:08.829Z,21.91
2023-02-02T03:25:08.809Z,21.90
2023-02-02T03:26:08.823Z,21.87
2023-02-02T03:27:08.785Z,21.90
2023-02-02T03:28:08.787Z,21.90
2023-02-02T03:29:08.803Z,21.90
2023-02-02T03:49:08.474Z,21.89
2023-02-02T03:50:09.906Z,21.89
2023-02-02T03:51:08.453Z,21.89
2023-02-02T03:52:08.451Z,21.90
2023-02-02T03:53:08.430Z,21.90
2023-02-02T03:54:08.415Z,21.90
2023-02-02T03:55:08.654Z,21.90
2023-02-02T03:56:08.380Z,21.91
2023-02-02T03:57:08.356Z,21.89
2023-02-02T03:58:08.342Z,21.90
2023-02-02T03:59:08.317Z,21.87
2023-02-02T04:00:08.299Z,21.91
2023-02-02T04:01:08.280Z,21.89
2023-02-02T04:02:08.267Z,21.89
2023-02-02T04:03:08.276Z,21.90
2023-02-02T04:04:08.222Z,21.90
2023-02-02T04:05:08.217Z,21.91
2023-02-02T04:06:09.149Z,21.93
2023-02-02T04:07:08.175Z,21.93
2023-02-02T04:08:08.154Z,21.91
2023-02-02T04:09:08.139Z,21.90
2023-02-02T04:10:08.139Z,21.89
2023-02-02T04:11:08.109Z,21.90
2023-02-02T04:12:08.110Z,21.89
2023-02-02T04:13:08.148Z,21.90
2023-02-02T04:14:08.091Z,21.87
2023-02-02T04:15:08.079Z,21.91
2023-02-02T04:16:08.114Z,21.89
2023-02-02T04:17:08.087Z,21.91
2023-02-02T04:18:08.114Z,21.90
2023-02-02T04:19:08.186Z,21.91
2023-02-02T04:20:08.124Z,21.93
2023-02-02T04:21:08.138Z,21.93
2023-02-02T04:22:08.163Z,21.93
2023-02-02T04:23:08.188Z,21.91
2023-02-02T04:24:08.181Z,21.93
2023-02-02T04:25:08.186Z,21.93
2023-02-02T04:26:08.212Z,21.93
2023-02-02T04:27:08.218Z,21.93
2023-02-02T04:28:08.236Z,21.96
2023-02-02T04:29:08.353Z,21.93
2023-02-02T04:30:08.273Z,21.94
2023-02-02T04:31:08.393Z,21.93
2023-02-02T04:32:08.277Z,21.96
2023-02-02T04:33:08.265Z,21.96
2023-02-02T04:34:08.267Z,21.97
2023-02-02T04:35:08.247Z,21.97
2023-02-02T04:36:08.248Z,21.97
2023-02-02T04:37:08.258Z,21.97
2023-02-02T04:38:08.775Z,21.97
2023-02-02T04:39:08.261Z,21.97
2023-02-02T04:40:08.261Z,21.97
2023-02-02T04:41:08.281Z,21.96
2023-02-02T04:42:08.299Z,21.98
2023-02-02T04:43:08.366Z,22.00
2023-02-02T04:44:08.404Z,22.00
2023-02-02T04:45:08.429Z,22.00
2023-02-02T04:46:08.521Z,22.00
2023-02-02T04:47:08.475Z,22.00
2023-02-02T04:48:08.517Z,22.00
2023-02-02T04:49:08.530Z,22.00
2023-02-02T04:50:08.542Z,22.03
2023-02-02T04:51:09.151Z,22.00
2023-02-02T04:52:08.607Z,22.01
2023-02-02T04:53:08.628Z,22.00
2023-02-02T04:54:08.665Z,22.01
2023-02-02T04:55:08.704Z,22.01
2023-02-02T04:56:08.754Z,22.01
2023-02-02T04:57:08.793Z,22.03
2023-02-02T04:58:08.845Z,22.03
2023-02-02T04:59:08.888Z,22.00
2023-02-02T05:00:08.942Z,22.03
2023-02-02T05:01:09.029Z,22.01
2023-02-02T05:02:09.020Z,22.01
2023-02-02T05:03:09.151Z,22.00
2023-02-02T05:04:09.142Z,22.03
2023-02-02T05:05:09.157Z,22.04
2023-02-02T05:06:09.206Z,22.03
2023-02-02T05:07:09.252Z,22.03
2023-02-02T05:08:09.302Z,22.04
2023-02-02T05:09:09.350Z,22.04
2023-02-02T05:10:09.392Z,22.04
2023-02-02T05:11:09.444Z,22.05
2023-02-02T05:12:09.490Z,22.01
2023-02-02T05:13:09.542Z,22.05
2023-02-02T05:14:09.659Z,22.05
2023-02-02T05:15:09.634Z,22.04
2023-02-02T05:16:09.755Z,22.04
2023-02-02T05:17:09.738Z,22.04
2023-02-02T05:18:09.787Z,22.07
2023-02-02T05:19:09.830Z,22.05
2023-02-02T05:20:09.863Z,22.04
2023-02-02T05:21:09.907Z,22.04
2023-02-02T05:22:09.940Z,22.05
2023-02-02T05:23:09.983Z,22.05
2023-02-02T05:24:10.016Z,22.05
2023-02-02T05:25:10.089Z,22.04
2023-02-02T05:26:10.096Z,22.04
2023-02-02T05:27:10.131Z,22.05
2023-02-02T05:28:10.168Z,22.05
2023-02-02T05:29:10.207Z,22.04
2023-02-02T05:30:10.256Z,22.04
2023-02-02T05:31:10.381Z,22.04
2023-02-02T05:32:10.377Z,22.07
2023-02-02T05:33:10.416Z,22.05
2023-02-02T05:34:10.461Z,22.04
2023-02-02T05:35:10.502Z,22.05
2023-02-02T05:36:10.560Z,22.04
2023-02-02T05:37:10.581Z,22.03
2023-02-02T05:38:10.632Z,22.04
2023-02-02T05:39:10.676Z,22.03
2023-02-02T05:40:10.713Z,22.04
2023-02-02T05:41:10.821Z,22.04
2023-02-02T05:42:10.816Z,22.04
2023-02-02T05:43:10.856Z,22.03
2023-02-02T05:44:10.912Z,22.05
2023-02-02T05:45:10.944Z,22.04
2023-02-02T05:46:11.028Z,22.05
2023-02-02T05:47:11.047Z,22.03
2023-02-02T05:48:11.106Z,22.04
2023-02-02T05:49:11.123Z,22.04
2023-02-02T05:50:11.179Z,22.04
2023-02-02T05:51:11.246Z,22.04
2023-02-02T05:52:11.261Z,22.01
2023-02-02T05:53:11.292Z,22.04
2023-02-02T05:54:11.333Z,22.03
2023-02-02T05:55:11.374Z,22.03
2023-02-02T05:56:11.383Z,22.03
2023-02-02T05:57:11.397Z,22.03
2023-02-02T05:58:11.455Z,22.04
2023-02-02T05:59:11.516Z,22.04
2023-02-02T06:00:11.567Z,22.05
2023-02-02T06:01:11.607Z,22.05
2023-02-02T06:02:11.665Z,22.05
2023-02-02T06:03:11.770Z,22.05
2023-02-02T06:04:11.788Z,22.04
2023-02-02T06:05:11.787Z,22.05
2023-02-02T06:06:11.838Z,22.04
2023-02-02T06:07:11.865Z,22.04
2023-02-02T06:08:11.861Z,22.04
2023-02-02T06:09:11.877Z,22.04
2023-02-02T06:10:11.906Z,22.03
2023-02-02T06:11:11.927Z,22.05
2023-02-02T06:12:11.951Z,22.04
2023-02-02T06:13:11.976Z,22.04
2023-02-02T06:14:11.985Z,22.04
2023-02-02T06:15:12.005Z,22.04
2023-02-02T06:16:12.073Z,22.08
2023-02-02T06:17:12.060Z,22.07
2023-02-02T06:18:12.089Z,22.03
2023-02-02T06:19:12.105Z,22.01
2023-02-02T06:20:13.662Z,22.00
2023-02-02T06:21:12.119Z,21.98
2023-02-02T06:22:12.120Z,22.00
2023-02-02T06:23:12.146Z,22.01
2023-02-02T06:24:12.180Z,22.04
2023-02-02T06:25:12.172Z,22.01
2023-02-02T06:26:12.164Z,22.03
2023-02-02T06:27:12.167Z,21.96
2023-02-02T06:28:12.160Z,21.96
2023-02-02T06:29:12.140Z,21.93
2023-02-02T06:30:12.122Z,21.90
2023-02-02T06:31:12.199Z,21.90
2023-02-02T06:32:12.229Z,21.86
2023-02-02T06:33:12.120Z,21.97
2023-02-02T06:34:12.130Z,22.01
2023-02-02T06:35:12.139Z,22.03
2023-02-02T06:36:12.142Z,22.04
2023-02-02T06:37:12.164Z,22.03
2023-02-02T06:38:12.202Z,22.04
2023-02-02T06:39:12.245Z,22.05
2023-02-02T06:40:12.312Z,22.07
2023-02-02T06:41:12.326Z,22.05
2023-02-02T06:42:21.117Z,22.07
2023-02-02T06:43:14.128Z,22.08
2023-02-02T06:44:12.659Z,22.09
2023-02-02T06:45:12.280Z,22.09
2023-02-02T06:46:12.317Z,22.07
2023-02-02T06:47:12.247Z,22.09
2023-02-02T06:48:12.214Z,22.07
2023-02-02T06:49:12.191Z,22.07
2023-02-02T06:50:12.244Z,22.09
2023-02-02T06:51:12.138Z,22.08
2023-02-02T06:52:12.105Z,22.09
2023-02-02T06:53:12.089Z,22.08
2023-02-02T06:54:12.080Z,22.08
2023-02-02T06:55:12.186Z,22.07
2023-02-02T06:56:12.144Z,22.08
2023-02-02T06:57:12.176Z,22.07
2023-02-02T06:58:12.195Z,22.09
2023-02-02T06:59:12.233Z,22.09
2023-02-02T07:00:12.271Z,22.11
2023-02-02T07:01:12.329Z,22.07
2023-02-02T07:02:12.297Z,22.07
2023-02-02T07:03:12.436Z,22.07
2023-02-02T07:04:12.362Z,22.08
2023-02-02T07:05:12.406Z,22.07
2023-02-02T07:06:12.441Z,22.09
2023-02-02T07:07:12.472Z,22.08
2023-02-02T07:08:12.514Z,22.08
2023-02-02T07:09:12.565Z,22.08
2023-02-02T07:11:09.359Z,22.08
2023-02-02T07:11:16.659Z,22.09
2023-02-02T07:12:12.568Z,22.08
2023-02-02T07:13:12.553Z,22.08
2023-02-02T07:14:12.581Z,22.09
2023-02-02T07:15:12.743Z,22.08
2023-02-02T07:16:12.511Z,22.07
2023-02-02T07:17:12.444Z,22.09
2023-02-02T07:18:12.413Z,22.11
2023-02-02T07:19:12.405Z,22.07
2023-02-02T07:20:12.365Z,22.09
2023-02-02T07:21:12.374Z,22.08
2023-02-02T07:22:12.445Z,22.07
2023-02-02T07:23:12.472Z,21.96
2023-02-02T07:24:12.425Z,22.00
2023-02-02T07:25:12.486Z,21.89
2023-02-02T07:26:12.431Z,21.93
2023-02-02T07:28:12.496Z,22.04
2023-02-02T07:29:12.410Z,22.08
2023-02-02T07:30:12.418Z,22.11
2023-02-02T07:31:12.562Z,22.12
2023-02-02T07:32:12.552Z,22.12
2023-02-02T07:33:13.129Z,22.14
2023-02-02T07:34:12.565Z,22.14
2023-02-02T07:35:12.596Z,22.14
2023-02-02T07:36:12.646Z,22.17
2023-02-02T07:37:12.700Z,22.14
2023-02-02T07:38:12.735Z,22.15
2023-02-02T07:39:12.775Z,22.17
2023-02-02T07:40:12.823Z,22.17
2023-02-02T07:41:12.868Z,22.17
2023-02-02T07:42:12.924Z,22.14
2023-02-02T07:43:13.031Z,22.14
2023-02-02T07:44:13.020Z,22.17
2023-02-02T07:45:27.333Z,22.15
2023-02-02T07:46:14.079Z,22.14
2023-02-02T07:47:12.992Z,22.14
2023-02-02T07:48:13.031Z,22.14
2023-02-02T07:49:12.970Z,22.14
2023-02-02T07:50:12.908Z,22.14
2023-02-02T07:51:12.889Z,22.14
2023-02-02T07:52:12.857Z,22.14
2023-02-02T07:53:12.849Z,22.14
2023-02-02T07:54:12.825Z,22.12
2023-02-02T07:55:14.964Z,22.12
2023-02-02T07:56:12.911Z,22.09
2023-02-02T07:57:12.876Z,22.11
2023-02-02T07:58:12.918Z,22.11
2023-02-02T07:59:12.941Z,22.09
2023-02-02T08:00:12.927Z,22.08
2023-02-02T08:01:12.961Z,22.09
2023-02-02T08:02:13.014Z,22.09
2023-02-02T08:03:13.039Z,22.11
2023-02-02T08:04:13.067Z,22.09
2023-02-02T08:05:13.007Z,22.11
2023-02-02T08:06:13.047Z,22.11
2023-02-02T08:07:14.900Z,22.09
2023-02-02T08:08:13.118Z,22.12
2023-02-02T08:09:13.176Z,22.11
2023-02-02T08:10:13.216Z,22.09
2023-02-02T08:11:13.245Z,22.11
2023-02-02T08:12:13.324Z,22.12
2023-02-02T08:13:13.278Z,22.11
2023-02-02T08:14:13.327Z,22.11
2023-02-02T08:15:13.350Z,22.11
2023-02-02T08:16:13.439Z,22.11
2023-02-02T08:17:13.417Z,22.03
2023-02-02T08:56:14.621Z,22.07
2023-02-02T08:57:14.453Z,22.08
2023-02-02T08:58:14.486Z,22.08
2023-02-02T08:59:14.515Z,22.08
2023-02-02T09:00:14.552Z,22.07
2023-02-02T09:01:14.743Z,22.11
2023-02-02T09:02:14.678Z,22.08
2023-02-02T09:03:14.789Z,22.08
2023-02-02T09:04:14.752Z,22.08
2023-02-02T09:05:14.784Z,22.08
2023-02-02T09:06:14.805Z,22.07
2023-02-02T09:07:14.778Z,22.04
2023-02-02T09:08:14.822Z,22.07
2023-02-02T09:09:14.783Z,22.05
2023-02-02T09:10:14.804Z,22.05
2023-02-02T09:11:14.779Z,22.01
2023-02-02T09:12:14.798Z,22.01
2023-02-02T09:13:14.753Z,22.00
2023-02-02T09:14:14.784Z,22.04
2023-02-02T09:15:14.776Z,22.07
2023-02-02T09:16:14.882Z,22.08
2023-02-02T09:17:14.860Z,22.04
2023-02-02T09:18:14.899Z,22.04
2023-02-02T09:19:14.987Z,22.07
2023-02-02T09:20:14.980Z,21.94
2023-02-02T09:21:15.047Z,21.98
2023-02-02T09:22:15.636Z,22.03
2023-02-02T09:23:15.097Z,22.05
2023-02-02T09:24:15.124Z,22.08
2023-02-02T09:25:15.173Z,22.12
2023-02-02T09:26:15.203Z,22.14
2023-02-02T09:27:15.210Z,22.18
2023-02-02T09:28:16.107Z,22.21
2023-02-02T09:29:15.278Z,22.24
2023-02-02T09:35:15.407Z,22.07
2023-02-02T09:36:15.418Z,21.94
2023-02-02T09:37:15.431Z,21.87
2023-02-02T09:38:15.403Z,21.80
2023-02-02T09:39:15.404Z,21.79
2023-02-02T09:40:15.438Z,21.77
2023-02-02T09:41:15.373Z,21.77
2023-02-02T09:42:15.364Z,21.77
2023-02-02T09:43:15.526Z,21.79
2023-02-02T09:44:15.329Z,21.81
2023-02-02T09:45:15.318Z,21.81
2023-02-02T09:46:16.215Z,21.84
2023-02-02T09:47:15.271Z,21.87
2023-02-02T09:48:15.248Z,21.91
2023-02-02T09:49:15.227Z,21.93
2023-02-02T09:50:15.299Z,21.93
2023-02-02T09:51:15.191Z,21.94
2023-02-02T09:52:15.611Z,21.96
2023-02-02T09:53:15.216Z,21.97
2023-02-02T09:54:15.158Z,21.98
2023-02-02T09:55:16.126Z,22.00
2023-02-02T09:56:15.223Z,22.01
2023-02-02T09:57:15.278Z,22.01
2023-02-02T09:58:15.267Z,22.04
2023-02-02T09:59:20.430Z,22.03
2023-02-02T10:00:16.240Z,22.04
2023-02-02T10:01:15.259Z,22.04
2023-02-02T10:02:15.618Z,22.07
2023-02-02T10:03:15.170Z,22.08
2023-02-02T10:04:15.156Z,22.07
2023-02-02T10:05:15.113Z,22.05
2023-02-02T10:06:15.095Z,22.08
2023-02-02T10:07:15.086Z,22.05
2023-02-02T10:08:20.500Z,22.08
2023-02-02T10:09:16.028Z,22.08
2023-02-02T10:10:17.196Z,22.09
2023-02-02T10:11:14.977Z,22.11
2023-02-02T10:12:14.970Z,22.11
2023-02-02T10:13:14.941Z,22.11
2023-02-02T10:14:14.905Z,22.11
2023-02-02T10:15:14.891Z,22.09
2023-02-02T10:16:14.936Z,22.11
2023-02-02T10:17:14.858Z,22.07
2023-02-02T10:18:14.819Z,22.04
2023-02-02T10:19:14.794Z,22.04
2023-02-02T10:20:14.764Z,22.05
2023-02-02T10:21:14.777Z,22.08
2023-02-02T10:22:14.706Z,22.12
2023-02-02T10:23:14.690Z,22.15
2023-02-02T10:24:14.662Z,22.15
2023-02-02T10:25:14.641Z,22.17
2023-02-02T10:26:14.610Z,22.19
2023-02-02T10:27:14.590Z,22.19
2023-02-02T10:28:14.573Z,22.19
2023-02-02T10:29:14.552Z,22.18
2023-02-02T10:30:14.572Z,22.21
2023-02-02T10:31:14.629Z,22.18
2023-02-02T10:32:15.572Z,22.19
2023-02-02T10:33:14.467Z,22.19
2023-02-02T10:34:14.460Z,22.19
2023-02-02T10:35:15.033Z,22.17
2023-02-02T10:36:14.400Z,22.18
2023-02-02T10:37:14.379Z,22.18
2023-02-02T10:38:14.607Z,22.18
2023-02-02T10:39:14.342Z,22.19
2023-02-02T10:40:14.313Z,22.19
2023-02-02T10:41:14.314Z,22.21
2023-02-02T10:42:14.354Z,22.17
2023-02-02T10:43:14.402Z,22.17
2023-02-02T10:44:14.452Z,22.15
2023-02-02T10:45:15.119Z,22.17
2023-02-02T10:46:14.757Z,22.18
2023-02-02T10:47:14.576Z,22.15
2023-02-02T10:48:15.122Z,22.15
2023-02-02T10:49:14.765Z,22.18
2023-02-02T10:50:14.732Z,22.17
2023-02-02T10:51:14.759Z,22.18
2023-02-02T10:52:14.885Z,22.19
2023-02-02T10:53:14.854Z,22.18
2023-02-02T10:54:14.895Z,22.18
2023-02-02T10:55:14.945Z,22.17
2023-02-02T10:56:14.988Z,22.17
2023-02-02T10:57:15.039Z,22.18
2023-02-02T10:58:15.091Z,22.17
2023-02-02T10:59:15.132Z,22.17
2023-02-02T11:00:15.171Z,22.17
2023-02-02T11:01:16.162Z,22.18
2023-02-02T11:02:21.148Z,22.18
2023-02-02T11:03:16.251Z,22.17
2023-02-02T11:04:15.226Z,22.17
2023-02-02T11:05:15.210Z,22.15
2023-02-02T11:06:16.096Z,22.17
2023-02-02T11:07:15.226Z,22.17
2023-02-02T11:08:15.151Z,22.18
2023-02-02T11:09:15.118Z,22.09
2023-02-02T11:10:15.105Z,22.12
2023-02-02T11:11:15.070Z,22.11
2023-02-02T11:12:15.068Z,22.05
2023-02-02T11:13:15.066Z,22.07
2023-02-02T11:14:15.050Z,22.11
2023-02-02T11:15:15.038Z,22.14
2023-02-02T11:16:15.672Z,22.15
2023-02-02T11:17:15.020Z,22.14
2023-02-02T11:18:15.060Z,22.14
2023-02-02T11:19:15.092Z,22.15
2023-02-02T11:20:15.199Z,22.18
2023-02-02T11:21:15.165Z,22.18
2023-02-02T11:22:15.209Z,22.18
2023-02-02T11:23:15.258Z,22.19
2023-02-02T11:24:15.372Z,22.21
2023-02-02T11:25:15.343Z,22.18
2023-02-02T11:26:15.397Z,22.19
2023-02-02T11:27:15.474Z,22.19
2023-02-02T11:28:15.480Z,22.19
2023-02-02T11:29:15.516Z,22.21
2023-02-02T11:30:15.557Z,22.17
2023-02-02T11:31:15.638Z,22.21
2023-02-02T11:32:15.545Z,22.19
2023-02-02T11:33:15.568Z,22.19
2023-02-02T11:34:15.678Z,22.17
2023-02-02T11:35:16.591Z,22.19
2023-02-02T11:36:16.620Z,22.19
2023-02-02T11:37:15.725Z,22.22
2023-02-02T11:38:15.777Z,22.18
2023-02-02T11:39:15.839Z,22.09
2023-02-02T11:40:16.464Z,22.11
2023-02-02T11:41:15.793Z,22.12
2023-02-02T11:42:16.522Z,22.15
2023-02-02T11:43:15.870Z,22.15
2023-02-02T11:44:15.907Z,22.15
2023-02-02T11:45:15.944Z,22.17
2023-02-02T11:46:16.022Z,22.19
2023-02-02T11:47:16.044Z,22.15
2023-02-02T11:48:16.110Z,22.19
2023-02-02T11:49:16.114Z,22.07
2023-02-02T11:50:16.118Z,22.09
2023-02-02T11:51:16.265Z,22.09
2023-02-02T11:52:16.121Z,22.07
2023-02-02T11:53:16.158Z,22.07
2023-02-02T11:54:16.209Z,22.08
2023-02-02T11:55:16.256Z,22.11
2023-02-02T11:56:16.292Z,22.03
2023-02-02T11:57:17.087Z,22.04
2023-02-02T11:58:16.377Z,22.05
2023-02-02T11:59:16.428Z,22.01
2023-02-02T12:00:16.484Z,22.00
2023-02-02T12:01:16.522Z,22.03
2023-02-02T12:02:17.147Z,22.01
2023-02-02T12:03:16.603Z,22.00
2023-02-02T12:04:16.738Z,21.98
2023-02-02T12:05:16.706Z,22.03
2023-02-02T12:06:16.744Z,22.01
2023-02-02T12:07:16.757Z,21.98
2023-02-02T12:08:16.760Z,22.01
2023-02-02T12:09:16.783Z,22.04
2023-02-02T12:10:17.595Z,22.01
2023-02-02T12:11:16.856Z,22.03
2023-02-02T12:12:16.780Z,22.04
2023-02-02T12:13:16.830Z,22.07
2023-02-02T12:14:16.786Z,22.07
2023-02-02T12:15:16.883Z,22.07
2023-02-02T12:16:16.895Z,22.09
2023-02-02T12:17:16.894Z,22.09
2023-02-02T12:18:16.943Z,22.05
2023-02-02T12:19:17.010Z,22.08
2023-02-02T12:20:17.047Z,22.07
2023-02-02T12:21:17.078Z,22.09
2023-02-02T12:22:17.122Z,22.07
2023-02-02T12:23:17.175Z,22.07
2023-02-02T12:24:17.210Z,22.11
2023-02-02T12:25:17.276Z,22.05
2023-02-02T12:26:17.335Z,22.07
2023-02-02T12:27:17.308Z,22.07
2023-02-02T12:28:17.341Z,22.07
2023-02-02T12:29:17.384Z,22.05
2023-02-02T12:30:17.432Z,22.04
2023-02-02T12:31:17.560Z,22.03
2023-02-02T12:32:17.503Z,22.05
2023-02-02T12:33:17.543Z,22.04
2023-02-02T12:34:17.581Z,22.04
2023-02-02T12:35:17.625Z,22.04
2023-02-02T12:36:17.727Z,22.04
2023-02-02T12:37:17.695Z,22.04
2023-02-02T12:38:17.719Z,22.04
2023-02-02T12:39:17.753Z,22.05
2023-02-02T12:40:17.764Z,22.07
2023-02-02T12:41:17.777Z,22.07
2023-02-02T12:42:17.814Z,22.05
2023-02-02T12:43:17.845Z,22.07
2023-02-02T12:44:17.875Z,22.08
2023-02-02T12:45:17.914Z,22.11
2023-02-02T12:46:18.061Z,22.11
2023-02-02T12:47:18.095Z,22.11
2023-02-02T12:48:18.061Z,22.08
2023-02-02T12:49:18.090Z,22.11
2023-02-02T12:50:18.141Z,22.11
2023-02-02T12:51:18.181Z,22.12
2023-02-02T12:52:18.220Z,22.15
2023-02-02T12:53:18.269Z,22.15
2023-02-02T12:54:33.296Z,22.18
2023-02-02T12:55:19.298Z,22.15
2023-02-02T12:56:18.289Z,22.18
2023-02-02T12:57:18.239Z,22.18
2023-02-02T12:58:18.237Z,22.18
2023-02-02T12:59:18.196Z,22.17
2023-02-02T13:00:18.176Z,22.21
2023-02-02T13:01:18.194Z,22.18
2023-02-02T13:02:18.188Z,22.21
2023-02-02T13:03:18.106Z,22.22
2023-02-02T13:04:18.092Z,22.22
2023-02-02T13:05:18.070Z,22.15
2023-02-02T13:06:18.128Z,22.19
2023-02-02T13:07:18.051Z,22.19
2023-02-02T13:08:18.039Z,22.18
2023-02-02T13:09:19.960Z,22.14
2023-02-02T13:10:18.014Z,22.14
2023-02-02T13:11:18.006Z,22.17
2023-02-02T13:12:18.029Z,22.18
2023-02-02T13:13:17.978Z,22.19
2023-02-02T13:14:18.955Z,22.24
2023-02-02T13:15:17.931Z,22.25
2023-02-02T13:16:18.061Z,22.27
2023-02-02T13:17:17.875Z,22.28
2023-02-02T13:18:17.856Z,22.28
2023-02-02T13:19:17.826Z,22.28
2023-02-02T13:20:18.579Z,22.29
2023-02-02T13:21:17.793Z,22.29
2023-02-02T13:22:17.755Z,22.31
2023-02-02T13:23:17.801Z,22.28
2023-02-02T13:24:17.842Z,22.27
2023-02-02T13:25:17.914Z,22.25
2023-02-02T13:26:18.044Z,22.25
2023-02-02T13:27:18.095Z,22.25
2023-02-02T13:28:18.022Z,22.25
2023-02-02T13:29:18.070Z,22.24
2023-02-02T13:30:18.106Z,22.25
2023-02-02T13:31:18.303Z,22.25
2023-02-02T13:32:18.271Z,22.24
2023-02-02T13:33:18.218Z,22.25
2023-02-02T13:34:18.271Z,22.22
2023-02-02T13:35:18.333Z,22.22
2023-02-02T13:36:18.442Z,22.25
2023-02-02T13:37:19.004Z,22.22
2023-02-02T13:38:18.450Z,22.21
2023-02-02T13:39:18.493Z,22.24
2023-02-02T13:40:18.545Z,22.21
2023-02-02T13:41:18.590Z,22.22
2023-02-02T13:42:18.619Z,22.19
2023-02-02T13:43:19.573Z,22.19
2023-02-02T13:44:18.741Z,22.21
2023-02-02T13:45:18.756Z,22.22
2023-02-02T13:46:18.846Z,22.22
2023-02-02T13:47:18.832Z,22.19
2023-02-02T13:48:18.875Z,22.21
2023-02-02T13:49:18.927Z,22.21
2023-02-02T13:50:18.981Z,22.21
2023-02-02T13:51:19.152Z,22.18
2023-02-02T13:52:19.060Z,22.21
2023-02-02T13:53:19.096Z,22.19
2023-02-02T13:54:19.148Z,22.22
2023-02-02T13:55:19.149Z,22.24
2023-02-02T13:56:19.167Z,22.19
2023-02-02T13:57:19.176Z,22.21
2023-02-02T13:58:19.158Z,22.17
2023-02-02T13:59:19.172Z,22.18
2023-02-02T14:00:19.207Z,22.18
2023-02-02T14:01:19.270Z,22.19
2023-02-02T14:02:19.251Z,22.18
2023-02-02T14:03:19.226Z,22.25
2023-02-02T14:04:19.279Z,22.24
2023-02-02T14:05:19.237Z,22.25
2023-02-02T14:06:19.273Z,22.25
2023-02-02T14:07:19.298Z,22.25
2023-02-02T14:08:19.290Z,22.24
2023-02-02T14:09:19.289Z,22.24
2023-02-02T14:10:19.292Z,22.22
2023-02-02T14:11:19.337Z,22.25
2023-02-02T14:12:19.381Z,22.25
2023-02-02T14:13:19.429Z,22.24
2023-02-02T14:14:20.079Z,22.24
2023-02-02T14:15:19.514Z,22.22
2023-02-02T14:16:19.598Z,22.24
2023-02-02T14:17:19.645Z,22.22
2023-02-02T14:18:19.638Z,22.24
2023-02-02T14:19:19.645Z,22.22
2023-02-02T14:20:21.496Z,22.21
2023-02-02T14:21:19.699Z,22.22
2023-02-02T14:22:19.722Z,22.22
2023-02-02T14:23:19.712Z,22.22
2023-02-02T14:24:19.709Z,22.21
2023-02-02T14:25:19.736Z,22.22
2023-02-02T14:26:19.941Z,22.19
2023-02-02T14:27:19.933Z,22.21
2023-02-02T14:28:19.811Z,22.19
2023-02-02T14:29:19.811Z,22.22
2023-02-02T14:30:19.788Z,22.21
2023-02-02T14:31:19.893Z,22.22
2023-02-02T14:32:20.077Z,22.21
2023-02-02T14:33:19.788Z,22.21
2023-02-02T14:34:19.826Z,22.21
2023-02-02T14:35:19.862Z,22.21
2023-02-02T14:36:19.877Z,22.24
2023-02-02T14:37:19.886Z,22.21
2023-02-02T14:38:19.915Z,22.21
2023-02-02T14:39:19.932Z,22.24
2023-02-02T14:40:19.982Z,22.21
2023-02-02T14:41:19.970Z,22.22
2023-02-02T14:42:19.986Z,22.21
2023-02-02T14:43:20.010Z,22.21
2023-02-02T14:44:20.029Z,22.22
2023-02-02T14:45:20.056Z,22.21
2023-02-02T14:46:20.129Z,22.24
2023-02-02T14:47:20.118Z,22.24
2023-02-02T14:48:20.156Z,22.19
2023-02-02T14:49:20.269Z,22.19
2023-02-02T14:50:20.251Z,22.22
2023-02-02T14:51:20.303Z,22.21
2023-02-02T14:52:20.331Z,22.21
2023-02-02T14:53:20.376Z,22.21
2023-02-02T14:54:20.425Z,22.21
2023-02-02T14:55:20.460Z,22.25
2023-02-02T14:56:20.491Z,22.25
2023-02-02T14:57:20.529Z,22.27
2023-02-02T14:58:20.560Z,22.27
2023-02-02T14:59:20.603Z,22.27
2023-02-02T15:00:20.641Z,22.27
2023-02-02T15:01:20.703Z,22.29
2023-02-02T15:02:20.731Z,22.29
2023-02-02T15:03:20.778Z,22.29
2023-02-02T15:04:20.852Z,22.31
2023-02-02T15:05:20.844Z,22.31
2023-02-02T15:06:20.888Z,22.32
2023-02-02T15:07:20.924Z,22.29
2023-02-02T15:08:20.981Z,22.28
2023-02-02T15:09:21.073Z,22.31
2023-02-02T15:10:21.054Z,22.29
2023-02-02T15:11:21.095Z,22.28
2023-02-02T15:12:21.161Z,22.28
2023-02-02T15:13:21.179Z,22.28
2023-02-02T15:14:21.224Z,22.27
2023-02-02T15:15:21.266Z,22.27
2023-02-02T15:16:21.405Z,22.25
2023-02-02T15:17:21.360Z,22.25
2023-02-02T15:18:22.060Z,22.25
2023-02-02T15:19:21.438Z,22.25
2023-02-02T15:20:21.484Z,22.19
2023-02-02T15:21:21.515Z,22.22
2023-02-02T15:22:21.600Z,22.21
2023-02-02T15:23:21.597Z,22.22
2023-02-02T15:24:22.558Z,22.21
2023-02-02T15:25:21.707Z,22.19
2023-02-02T15:26:21.741Z,22.22
2023-02-02T15:27:21.896Z,22.22
2023-02-02T15:28:21.827Z,22.22
2023-02-02T15:29:21.859Z,22.19
2023-02-02T15:30:21.912Z,22.22
2023-02-02T15:31:22.159Z,22.22
2023-02-02T15:32:21.997Z,22.21
2023-02-02T15:33:22.032Z,22.22
2023-02-02T15:34:22.090Z,22.21
2023-02-02T15:35:22.119Z,22.21
2023-02-02T15:36:22.176Z,22.24
2023-02-02T15:37:22.210Z,22.21
2023-02-02T15:38:22.260Z,22.22
2023-02-02T15:39:22.291Z,22.24
2023-02-02T15:40:22.332Z,22.24
2023-02-02T15:41:22.375Z,22.24
2023-02-02T15:42:22.415Z,22.21
2023-02-02T15:43:22.439Z,22.22
2023-02-02T15:44:22.495Z,22.24
2023-02-02T15:45:22.529Z,22.22
2023-02-02T15:46:22.611Z,22.25
2023-02-02T15:47:22.603Z,22.21
2023-02-02T15:48:22.644Z,22.19
2023-02-02T15:49:36.187Z,22.21
2023-02-02T15:50:23.640Z,22.22
2023-02-02T15:51:22.675Z,22.22
2023-02-02T15:52:23.059Z,22.21
2023-02-02T15:53:22.579Z,22.21
2023-02-02T15:54:22.540Z,22.19
2023-02-02T15:55:22.539Z,22.22
2023-02-02T15:56:22.487Z,22.21
2023-02-02T15:57:22.456Z,22.21
2023-02-02T15:58:22.478Z,22.21
2023-02-02T15:59:22.544Z,22.21
2023-02-02T16:00:22.571Z,22.19
2023-02-02T16:01:22.616Z,22.19
2023-02-02T16:02:23.573Z,22.18
2023-02-02T16:03:22.692Z,22.19
2023-02-02T16:04:22.749Z,22.18
2023-02-02T16:05:23.053Z,22.18
2023-02-02T16:06:22.860Z,22.17
2023-02-02T16:07:22.841Z,22.19
2023-02-02T16:08:22.854Z,22.17
2023-02-02T16:09:22.888Z,22.17
2023-02-02T16:10:22.923Z,22.18
2023-02-02T16:11:22.950Z,22.18
2023-02-02T16:12:22.961Z,22.17
2023-02-02T16:13:22.961Z,22.17
2023-02-02T16:14:22.968Z,22.15
2023-02-02T16:15:23.417Z,22.15
2023-02-02T16:16:23.010Z,22.15
2023-02-02T16:17:23.554Z,22.15
2023-02-02T16:18:23.069Z,22.17
2023-02-02T16:19:23.102Z,22.15
2023-02-02T16:20:23.169Z,22.11
2023-02-02T16:21:23.200Z,22.11
2023-02-02T16:22:23.203Z,22.11
2023-02-02T16:23:23.230Z,22.08
2023-02-02T16:24:23.218Z,22.08
2023-02-02T16:25:23.547Z,22.07
2023-02-02T16:26:23.272Z,22.11
2023-02-02T16:27:23.213Z,22.07
2023-02-02T16:28:23.179Z,22.07
2023-02-02T16:29:23.173Z,22.05
2023-02-02T16:30:23.153Z,22.05
2023-02-02T16:31:24.081Z,22.05
2023-02-02T16:32:23.173Z,22.03
2023-02-02T16:33:23.261Z,22.04
2023-02-02T16:34:23.207Z,22.03
2023-02-02T16:35:23.412Z,22.04
2023-02-02T16:36:25.445Z,22.01
2023-02-02T16:37:23.153Z,22.03
2023-02-02T16:38:23.127Z,22.03
2023-02-02T16:39:23.095Z,22.01
2023-02-02T16:40:23.080Z,22.03
2023-02-02T16:41:23.071Z,22.05
2023-02-02T16:42:23.010Z,22.03
2023-02-02T16:43:22.984Z,22.03
2023-02-02T16:44:22.962Z,22.03
2023-02-02T16:45:23.274Z,22.03
2023-02-02T16:46:22.957Z,22.01
2023-02-02T16:47:22.910Z,22.03
2023-02-02T16:48:22.884Z,22.03
2023-02-02T16:49:22.869Z,22.04
2023-02-02T16:50:22.859Z,22.01
2023-02-02T16:51:22.820Z,22.03
2023-02-02T16:52:22.784Z,22.04
2023-02-02T16:53:22.769Z,22.01
2023-02-02T16:54:22.725Z,22.01
2023-02-02T16:55:22.841Z,22.03
2023-02-02T16:56:22.679Z,22.03
2023-02-02T16:57:22.674Z,22.01
2023-02-02T16:58:22.767Z,22.00
2023-02-02T16:59:22.621Z,22.03
2023-02-02T17:00:22.612Z,22.03
2023-02-02T17:01:22.605Z,22.03
2023-02-02T17:02:22.571Z,22.03
2023-02-02T17:03:22.613Z,22.04
2023-02-02T17:04:22.519Z,22.04
2023-02-02T17:05:22.578Z,22.04
2023-02-02T17:06:22.484Z,22.04
2023-02-02T17:07:22.445Z,22.03
2023-02-02T17:08:22.423Z,22.03
2023-02-02T17:09:22.411Z,22.04
2023-02-02T17:10:22.389Z,22.04
2023-02-02T17:11:22.366Z,22.03
2023-02-02T17:12:33.323Z,22.00
2023-02-02T17:13:23.331Z,22.04
2023-02-02T17:14:22.311Z,22.03
2023-02-02T17:15:22.367Z,22.05